Time;durP1;ratioP1;P1;durP2;ratioP2;P2;SDS_P1;SDS_P2;PMS_P1;PMS_P2;Temp;Humidity;BMP_temperature;BMP_pressure;BME280_temperature;BME280_humidity;BME280_pressure;Samples;Min_cycle;Max_cycle;Signal;HPM_P1;HPM_P2
2023/08/01 00:04:30;;;;;;;4.78;3.90;;;20.50;97.80;;;;;;10324409;28;20421;-68
2023/08/01 00:09:30;;;;;;;6.22;4.22;;;20.40;97.80;;;;;;10313077;28;20914;-68
2023/08/01 00:14:31;;;;;;;5.20;4.28;;;20.40;97.80;;;;;;10321432;28;20817;-68
2023/08/01 00:19:31;;;;;;;5.63;4.40;;;20.40;97.80;;;;;;10327985;28;20818;-67
2023/08/01 00:24:32;;;;;;;6.28;4.75;;;20.40;97.80;;;;;;10321109;28;20402;-68
2023/08/01 00:29:33;;;;;;;6.15;4.63;;;20.40;97.80;;;;;;10321710;28;20443;-68
2023/08/01 00:34:33;;;;;;;6.10;4.60;;;20.40;97.80;;;;;;10320257;28;20418;-68
2023/08/01 00:39:34;;;;;;;7.20;4.77;;;20.40;97.80;;;;;;10321185;28;20421;-67
2023/08/01 00:44:34;;;;;;;5.57;4.40;;;20.40;97.80;;;;;;10317761;28;20770;-67
2023/08/01 00:49:35;;;;;;;4.77;4.20;;;20.30;97.70;;;;;;10320333;28;20486;-68
2023/08/01 00:54:36;;;;;;;6.80;5.13;;;20.30;97.70;;;;;;10314804;28;20405;-68
2023/08/01 00:59:37;;;;;;;6.07;4.97;;;20.30;97.70;;;;;;10328027;28;20406;-68
2023/08/01 01:04:38;;;;;;;5.70;4.90;;;20.30;97.70;;;;;;10319942;28;20424;-68
2023/08/01 01:09:38;;;;;;;6.38;4.88;;;20.30;97.60;;;;;;10314928;28;20478;-68
2023/08/01 01:14:39;;;;;;;7.03;5.20;;;20.30;97.70;;;;;;10317606;28;20446;-68
2023/08/01 01:19:40;;;;;;;5.57;4.82;;;20.30;97.70;;;;;;10320643;28;20398;-68
2023/08/01 01:24:42;;;;;;;6.75;5.50;;;20.30;97.60;;;;;;10320645;28;20413;-68
2023/08/01 01:29:44;;;;;;;8.23;5.23;;;20.20;97.60;;;;;;10317693;28;20557;-68
2023/08/01 01:34:45;;;;;;;6.50;5.10;;;20.30;97.60;;;;;;10322828;28;20422;-68
2023/08/01 01:39:47;;;;;;;6.80;5.00;;;20.20;97.60;;;;;;10329889;28;20414;-68
2023/08/01 01:44:48;;;;;;;6.37;5.30;;;20.20;97.60;;;;;;10326244;28;20778;-68
2023/08/01 01:49:48;;;;;;;6.83;5.40;;;20.20;97.60;;;;;;10322761;28;20414;-68
2023/08/01 01:54:49;;;;;;;7.87;5.60;;;20.20;97.60;;;;;;10326121;28;21016;-68
2023/08/01 01:59:49;;;;;;;7.80;5.50;;;20.20;97.50;;;;;;10326900;28;20910;-68
2023/08/01 02:04:50;;;;;;;7.03;5.33;;;19.90;97.70;;;;;;10323519;28;20429;-68
2023/08/01 02:09:51;;;;;;;6.07;5.43;;;20.20;97.50;;;;;;10323426;28;20430;-68
2023/08/01 02:14:52;;;;;;;6.90;5.60;;;20.10;97.50;;;;;;10323375;28;20934;-68
2023/08/01 02:19:52;;;;;;;7.30;5.90;;;20.20;97.50;;;;;;10323955;28;20522;-68
2023/08/01 02:24:53;;;;;;;6.77;5.90;;;20.10;97.70;;;;;;10323700;28;20403;-68
2023/08/01 02:29:53;;;;;;;6.20;5.40;;;20.10;97.40;;;;;;10319161;28;20403;-68
2023/08/01 02:34:54;;;;;;;7.83;5.73;;;20.10;97.70;;;;;;10320628;28;20938;-67
2023/08/01 02:39:55;;;;;;;6.83;5.43;;;20.10;97.40;;;;;;10320103;28;20743;-68
2023/08/01 02:45:05;;;;;;;7.47;5.60;;;20.10;97.40;;;;;;10319328;28;20410;-67
2023/08/01 02:50:06;;;;;;;7.63;6.00;;;20.00;97.40;;;;;;10318280;28;20413;-68
2023/08/01 02:55:07;;;;;;;7.20;5.68;;;20.00;97.40;;;;;;10317066;28;21571;-67
2023/08/01 03:00:11;;;;;;;8.88;5.85;;;20.00;97.40;;;;;;10321450;28;20510;-67
2023/08/01 03:05:11;;;;;;;7.97;5.83;;;20.00;97.30;;;;;;10321679;28;21003;-67
2023/08/01 03:10:12;;;;;;;7.67;5.67;;;20.00;97.30;;;;;;10318918;28;20420;-68
2023/08/01 03:15:13;;;;;;;7.17;5.50;;;20.00;97.30;;;;;;10313928;28;20461;-68
2023/08/01 03:20:13;;;;;;;8.27;6.07;;;20.00;97.30;;;;;;10319421;28;20408;-68
2023/08/01 03:25:14;;;;;;;7.27;5.70;;;20.00;97.30;;;;;;10315029;28;20892;-68
2023/08/01 03:30:15;;;;;;;8.83;6.13;;;19.90;97.30;;;;;;10316197;28;20514;-67
2023/08/01 03:35:15;;;;;;;8.03;6.13;;;19.90;97.30;;;;;;10317481;28;20418;-68
2023/08/01 03:40:16;;;;;;;8.10;5.97;;;20.00;97.30;;;;;;10318176;28;20418;-67
2023/08/01 03:45:17;;;;;;;7.47;5.60;;;19.90;97.30;;;;;;10315103;28;20956;-68
2023/08/01 03:50:18;;;;;;;8.27;5.80;;;19.90;97.30;;;;;;10312333;28;20445;-67
2023/08/01 03:55:18;;;;;;;7.05;5.72;;;19.90;97.30;;;;;;10309823;28;20407;-68
2023/08/01 04:00:19;;;;;;;8.43;5.87;;;19.80;97.20;;;;;;10315650;28;20402;-68
2023/08/01 04:05:20;;;;;;;8.27;6.07;;;19.80;97.20;;;;;;10309625;28;20418;-67
2023/08/01 04:10:23;;;;;;;7.57;5.80;;;19.80;97.20;;;;;;10312987;28;20914;-68
2023/08/01 04:15:24;;;;;;;8.70;5.80;;;19.80;97.20;;;;;;10313091;28;20865;-68
2023/08/01 04:20:25;;;;;;;8.00;5.90;;;19.40;97.10;;;;;;10314400;28;20501;-67
2023/08/01 04:25:26;;;;;;;6.50;5.63;;;19.80;97.10;;;;;;10312216;28;20786;-68
2023/08/01 04:30:27;;;;;;;6.80;5.63;;;19.80;97.10;;;;;;10312498;28;20770;-68
2023/08/01 04:35:27;;;;;;;7.23;5.33;;;19.80;97.10;;;;;;10312471;28;20419;-67
2023/08/01 04:40:28;;;;;;;7.10;5.33;;;19.80;97.10;;;;;;10318750;28;20402;-67
2023/08/01 04:45:29;;;;;;;6.93;5.50;;;19.80;97.00;;;;;;10327732;28;20469;-67
2023/08/01 04:50:29;;;;;;;6.63;5.03;;;19.80;97.00;;;;;;10325859;28;20412;-68
2023/08/01 04:55:31;;;;;;;6.72;5.38;;;19.80;97.00;;;;;;10320793;28;20434;-67
2023/08/01 05:00:32;;;;;;;6.03;5.00;;;19.80;97.00;;;;;;10315712;28;20482;-68
2023/08/01 05:05:36;;;;;;;6.45;4.88;;;19.80;97.00;;;;;;10318599;28;20404;-68
2023/08/01 05:10:36;;;;;;;5.93;4.93;;;19.70;97.00;;;;;;10322956;28;20940;-67
2023/08/01 05:15:37;;;;;;;6.70;5.00;;;19.70;97.20;;;;;;10312442;28;20953;-67
2023/08/01 05:20:37;;;;;;;5.05;4.50;;;19.70;97.20;;;;;;10324104;28;20930;-66
2023/08/01 05:25:42;;;;;;;6.97;4.78;;;19.70;97.10;;;;;;10322860;28;20944;-67
2023/08/01 05:30:43;;;;;;;6.27;4.53;;;19.70;97.30;;;;;;10319664;28;20429;-67
2023/08/01 05:35:43;;;;;;;6.63;4.80;;;19.70;97.20;;;;;;10321135;28;20433;-66
2023/08/01 05:40:44;;;;;;;5.37;4.30;;;19.70;97.20;;;;;;10315731;28;20406;-66
2023/08/01 05:45:45;;;;;;;6.27;4.67;;;19.70;97.20;;;;;;10320102;28;20505;-66
2023/08/01 05:50:45;;;;;;;6.67;4.60;;;19.70;97.20;;;;;;10319254;28;21046;-66
2023/08/01 05:55:46;;;;;;;6.17;4.73;;;19.70;97.20;;;;;;10317062;28;20914;-66
2023/08/01 06:00:47;;;;;;;5.80;4.50;;;19.70;97.20;;;;;;10322797;28;20402;-68
2023/08/01 06:05:48;;;;;;;5.10;4.37;;;19.60;97.10;;;;;;10310381;28;20504;-67
2023/08/01 06:10:48;;;;;;;5.43;4.53;;;19.60;97.10;;;;;;10311526;28;20425;-68
2023/08/01 06:15:49;;;;;;;5.67;4.40;;;19.60;97.10;;;;;;10321040;28;20493;-67
2023/08/01 06:20:50;;;;;;;8.82;4.05;;;19.70;97.10;;;;;;10318277;28;20838;-67
2023/08/01 06:25:50;;;;;;;5.35;3.78;;;19.60;97.40;;;;;;10320598;28;20465;-67
2023/08/01 06:30:51;;;;;;;5.80;3.85;;;19.60;97.40;;;;;;10317311;28;20426;-67
2023/08/01 06:35:51;;;;;;;6.28;3.70;;;19.60;97.30;;;;;;10315781;28;20426;-67
2023/08/01 06:40:52;;;;;;;5.18;3.63;;;19.70;97.20;;;;;;10322816;28;20414;-67
2023/08/01 06:45:53;;;;;;;6.88;3.70;;;19.60;97.20;;;;;;10324092;28;20406;-66
2023/08/01 06:50:53;;;;;;;5.18;3.40;;;19.60;97.10;;;;;;10320904;28;20421;-66
2023/08/01 06:55:54;;;;;;;4.95;3.60;;;19.60;97.10;;;;;;10316743;28;20411;-67
2023/08/01 07:00:54;;;;;;;5.57;3.30;;;19.60;97.10;;;;;;10319787;28;20411;-68
2023/08/01 07:05:55;;;;;;;5.35;3.40;;;19.70;97.00;;;;;;10316843;28;20433;-68
2023/08/01 07:10:56;;;;;;;4.13;3.38;;;19.70;97.00;;;;;;10317536;28;20414;-66
2023/08/01 07:15:56;;;;;;;6.03;3.63;;;19.70;96.90;;;;;;10323779;28;20782;-67
2023/08/01 07:21:01;;;;;;;4.65;3.22;;;19.70;96.90;;;;;;10321293;28;20416;-67
2023/08/01 07:26:02;;;;;;;5.23;3.27;;;19.80;96.90;;;;;;10321596;28;20481;-67
2023/08/01 07:31:05;;;;;;;4.87;3.50;;;19.80;96.90;;;;;;10317402;28;20507;-67
2023/08/01 07:36:05;;;;;;;4.53;3.28;;;19.80;96.90;;;;;;10317812;28;20423;-67
2023/08/01 07:41:07;;;;;;;5.70;3.60;;;19.70;96.90;;;;;;10320742;28;21043;-67
2023/08/01 07:46:09;;;;;;;4.47;3.50;;;19.70;97.00;;;;;;10315281;28;20426;-66
2023/08/01 07:51:11;;;;;;;4.97;3.40;;;19.70;97.00;;;;;;10308499;28;20944;-67
2023/08/01 07:56:12;;;;;;;7.03;3.73;;;19.70;97.00;;;;;;10316970;28;20931;-66
2023/08/01 08:01:12;;;;;;;7.47;3.30;;;19.70;97.30;;;;;;10310329;28;20399;-67
2023/08/01 08:06:13;;;;;;;5.47;3.10;;;19.70;97.10;;;;;;10312493;28;20432;-67
2023/08/01 08:11:15;;;;;;;5.07;3.50;;;19.70;97.30;;;;;;10316575;28;20418;-67
2023/08/01 08:16:16;;;;;;;5.80;3.50;;;19.70;97.10;;;;;;10312701;28;20422;-67
2023/08/01 08:21:17;;;;;;;5.63;3.28;;;19.70;97.10;;;;;;10332092;28;20403;-67
2023/08/01 08:26:17;;;;;;;4.82;3.42;;;19.70;97.00;;;;;;10326814;28;20402;-67
2023/08/01 08:31:18;;;;;;;5.28;3.47;;;19.80;97.10;;;;;;10325489;28;20906;-66
2023/08/01 08:36:19;;;;;;;5.97;3.50;;;19.80;97.00;;;;;;10316880;28;20414;-67
2023/08/01 08:41:27;;;;;;;5.07;3.25;;;19.80;97.00;;;;;;10332637;28;20402;-66
2023/08/01 08:46:29;;;;;;;5.22;3.25;;;19.80;97.00;;;;;;10308067;28;20410;-67
2023/08/01 08:51:31;;;;;;;5.57;3.33;;;19.80;97.10;;;;;;10325691;28;20403;-67
2023/08/01 08:56:33;;;;;;;5.53;3.70;;;19.80;97.00;;;;;;10320603;28;20422;-66
2023/08/01 09:01:34;;;;;;;6.20;3.60;;;19.80;97.10;;;;;;10321721;28;20407;-67
2023/08/01 09:06:40;;;;;;;7.43;3.70;;;19.80;97.10;;;;;;10325364;28;20406;-66
2023/08/01 09:11:46;;;;;;;6.57;3.58;;;19.80;97.10;;;;;;10315940;28;20805;-67
2023/08/01 09:16:47;;;;;;;5.60;3.60;;;19.80;97.20;;;;;;10320963;28;20845;-67
2023/08/01 09:21:48;;;;;;;5.30;3.63;;;19.80;97.20;;;;;;10317350;28;20501;-67
2023/08/01 09:26:49;;;;;;;7.13;4.05;;;19.80;97.40;;;;;;10325284;28;20545;-67
2023/08/01 09:31:50;;;;;;;5.60;3.80;;;19.80;97.20;;;;;;10322127;28;20923;-67
2023/08/01 09:36:57;;;;;;;4.90;3.45;;;19.80;97.20;;;;;;10314343;28;20426;-68
2023/08/01 09:42:02;;;;;;;6.03;3.80;;;19.80;97.20;;;;;;10318509;28;20481;-67
2023/08/01 09:47:04;;;;;;;7.40;3.87;;;19.80;97.20;;;;;;10324976;28;20416;-66
2023/08/01 09:52:05;;;;;;;6.38;4.05;;;19.80;97.20;;;;;;10317702;28;20840;-69
2023/08/01 09:57:07;;;;;;;5.93;3.90;;;19.80;97.30;;;;;;10326366;28;20517;-67
2023/08/01 10:02:13;;;;;;;5.83;3.80;;;19.80;97.30;;;;;;10327202;28;20914;-66
2023/08/01 10:07:17;;;;;;;5.40;4.25;;;19.80;97.30;;;;;;10324149;28;20406;-67
2023/08/01 10:12:18;;;;;;;6.53;4.27;;;19.70;97.30;;;;;;10328397;28;20860;-67
2023/08/01 10:17:22;;;;;;;7.97;4.20;;;19.80;97.30;;;;;;10330422;28;21017;-67
2023/08/01 10:22:23;;;;;;;6.50;4.18;;;19.80;97.30;;;;;;10327664;28;20460;-66
2023/08/01 10:27:24;;;;;;;5.70;4.25;;;19.80;97.30;;;;;;10331370;28;20406;-67
2023/08/01 10:32:33;;;;;;;5.70;3.88;;;19.80;97.30;;;;;;10318236;28;20406;-67
2023/08/01 10:37:45;;;;;;;5.70;3.77;;;19.90;97.20;;;;;;10325828;28;20418;-67
2023/08/01 10:42:46;;;;;;;5.10;3.70;;;19.90;97.50;;;;;;10326174;28;20429;-66
2023/08/01 10:47:51;;;;;;;6.57;4.28;;;19.90;97.20;;;;;;10330850;28;20822;-66
2023/08/01 10:53:03;;;;;;;5.70;4.10;;;19.90;97.30;;;;;;10327490;28;20903;-67
2023/08/01 10:58:04;;;;;;;5.35;3.60;;;19.90;97.30;;;;;;10321763;28;20418;-66
2023/08/01 11:03:05;;;;;;;5.90;4.10;;;19.80;97.30;;;;;;10326360;28;20789;-67
2023/08/01 11:08:06;;;;;;;7.18;4.10;;;19.80;97.30;;;;;;10320953;28;20409;-67
2023/08/01 11:13:12;;;;;;;6.05;3.97;;;19.90;97.30;;;;;;10322216;28;20409;-67
2023/08/01 11:18:13;;;;;;;5.50;4.00;;;19.90;97.30;;;;;;10322366;28;20826;-67
2023/08/01 11:23:13;;;;;;;6.60;4.10;;;19.90;97.50;;;;;;10322813;28;20400;-66
2023/08/01 11:28:17;;;;;;;7.40;4.40;;;20.00;97.10;;;;;;10329248;28;20407;-67
2023/08/01 11:33:20;;;;;;;6.85;3.88;;;20.10;97.10;;;;;;10321707;28;20957;-66
2023/08/01 11:38:23;;;;;;;6.35;4.00;;;20.20;97.10;;;;;;10320029;28;20414;-66
2023/08/01 11:43:23;;;;;;;7.00;4.20;;;20.30;97.00;;;;;;10316648;28;20513;-67
2023/08/01 11:48:24;;;;;;;5.97;3.83;;;20.30;96.90;;;;;;10323397;28;20421;-67
2023/08/01 11:53:26;;;;;;;5.78;3.83;;;20.40;96.90;;;;;;10323645;28;20414;-66
2023/08/01 11:58:30;;;;;;;5.25;4.03;;;20.40;96.90;;;;;;10318497;28;20422;-66
2023/08/01 12:03:31;;;;;;;6.15;3.58;;;20.40;96.80;;;;;;10317376;28;20444;-66
2023/08/01 12:08:34;;;;;;;6.32;3.90;;;20.50;96.80;;;;;;10321027;28;21577;-66
2023/08/01 12:13:35;;;;;;;5.95;3.70;;;20.60;96.80;;;;;;10353611;28;20414;-67
2023/08/01 12:18:37;;;;;;;6.18;3.90;;;20.60;96.70;;;;;;10320999;28;20418;-67
2023/08/01 12:23:37;;;;;;;7.05;3.80;;;20.70;96.60;;;;;;10319808;28;20487;-66
2023/08/01 12:28:38;;;;;;;5.65;3.20;;;20.70;96.50;;;;;;10323660;28;20418;-66
2023/08/01 12:33:39;;;;;;;5.40;3.58;;;20.70;96.50;;;;;;10318686;28;20498;-66
2023/08/01 12:38:39;;;;;;;4.80;3.67;;;20.80;96.60;;;;;;10319386;28;20468;-66
2023/08/01 12:43:40;;;;;;;5.43;3.63;;;20.80;96.50;;;;;;10322572;28;20409;-67
2023/08/01 12:48:41;;;;;;;6.20;4.00;;;20.80;96.40;;;;;;10313077;28;21008;-67
2023/08/01 12:53:42;;;;;;;6.20;3.67;;;20.90;96.30;;;;;;10330082;28;20902;-67
2023/08/01 12:58:43;;;;;;;5.97;3.90;;;21.00;96.20;;;;;;10313296;28;20505;-67
2023/08/01 13:03:44;;;;;;;5.45;3.70;;;21.00;96.10;;;;;;10311873;28;20446;-66
2023/08/01 13:08:44;;;;;;;5.60;3.43;;;21.00;96.00;;;;;;10314460;28;20429;-67
2023/08/01 13:13:45;;;;;;;5.93;3.57;;;21.00;96.00;;;;;;10314503;28;20417;-67
2023/08/01 13:18:48;;;;;;;5.53;3.50;;;21.00;96.10;;;;;;10319108;28;20411;-67
2023/08/01 13:23:48;;;;;;;5.43;3.47;;;21.00;96.10;;;;;;10310845;28;20934;-67
2023/08/01 13:28:49;;;;;;;4.70;3.30;;;21.00;96.20;;;;;;10307993;28;20406;-67
2023/08/01 13:33:49;;;;;;;5.78;3.78;;;21.00;96.30;;;;;;10317508;28;20416;-66
2023/08/01 13:38:50;;;;;;;4.82;3.45;;;21.00;96.40;;;;;;10321977;28;20449;-66
2023/08/01 13:43:51;;;;;;;4.57;3.35;;;20.90;96.60;;;;;;10322930;28;20400;-66
2023/08/01 13:48:52;;;;;;;5.47;3.43;;;20.90;96.50;;;;;;10325836;28;20421;-67
2023/08/01 13:53:52;;;;;;;5.05;3.15;;;20.90;96.50;;;;;;10308760;28;20416;-66
2023/08/01 13:58:53;;;;;;;3.67;2.97;;;20.90;96.50;;;;;;10312028;28;20430;-66
2023/08/01 14:03:53;;;;;;;4.93;3.40;;;20.90;96.60;;;;;;10325205;28;20794;-68
2023/08/01 14:08:54;;;;;;;6.10;3.15;;;21.00;96.60;;;;;;10319004;28;20453;-68
2023/08/01 14:13:55;;;;;;;4.45;2.42;;;21.10;97.10;;;;;;10321168;28;20410;-67
2023/08/01 14:18:55;;;;;;;5.60;2.60;;;21.00;97.00;;;;;;10313730;28;20477;-67
2023/08/01 14:23:56;;;;;;;3.13;2.40;;;21.00;97.00;;;;;;10322757;28;20450;-67
2023/08/01 14:28:57;;;;;;;4.38;2.35;;;21.00;97.30;;;;;;10318893;28;20443;-66
2023/08/01 14:33:57;;;;;;;4.13;1.80;;;21.00;97.30;;;;;;10327042;28;20410;-67
2023/08/01 14:38:58;;;;;;;4.50;2.23;;;21.00;97.00;;;;;;10318470;28;20425;-67
2023/08/01 14:43:58;;;;;;;2.73;1.93;;;21.00;97.00;;;;;;10319856;28;20830;-66
2023/08/01 14:48:59;;;;;;;4.87;2.20;;;21.00;97.20;;;;;;10327488;28;20429;-67
2023/08/01 14:54:00;;;;;;;3.50;2.10;;;20.90;97.20;;;;;;10316084;28;20443;-67
2023/08/01 14:59:00;;;;;;;3.50;1.83;;;21.00;97.60;;;;;;10316393;28;20415;-67
2023/08/01 15:04:01;;;;;;;2.63;1.80;;;21.10;97.30;;;;;;10319371;28;20418;-67
2023/08/01 15:09:01;;;;;;;3.23;2.00;;;21.20;97.20;;;;;;10318989;28;20451;-66
2023/08/01 15:14:02;;;;;;;3.30;1.80;;;21.10;97.10;;;;;;10319463;28;20470;-67
2023/08/01 15:19:03;;;;;;;2.93;1.77;;;21.30;97.00;;;;;;10318555;28;20447;-65
2023/08/01 15:24:03;;;;;;;5.83;1.97;;;21.30;96.90;;;;;;10324174;28;20485;-68
2023/08/01 15:29:04;;;;;;;3.20;1.80;;;21.30;96.60;;;;;;10314009;28;20433;-69
2023/08/01 15:34:05;;;;;;;4.47;2.03;;;21.30;96.70;;;;;;10319286;28;20415;-68
2023/08/01 15:39:05;;;;;;;5.27;2.03;;;21.20;96.60;;;;;;10322882;28;20506;-67
2023/08/01 15:44:06;;;;;;;4.17;1.90;;;21.20;96.70;;;;;;10320027;28;20396;-67
2023/08/01 15:49:07;;;;;;;4.03;2.03;;;21.10;96.80;;;;;;10305206;28;20629;-68
2023/08/01 15:54:08;;;;;;;4.83;1.90;;;21.00;97.00;;;;;;10316100;28;20502;-67
2023/08/01 15:59:09;;;;;;;4.60;2.10;;;21.00;97.40;;;;;;10314547;28;20481;-67
2023/08/01 16:04:10;;;;;;;4.50;1.60;;;21.00;97.10;;;;;;10320020;28;20771;-69
2023/08/01 16:09:10;;;;;;;4.38;1.70;;;21.00;97.30;;;;;;10311067;28;20408;-66
2023/08/01 16:14:11;;;;;;;4.78;1.83;;;20.80;97.50;;;;;;10307530;28;20419;-68
2023/08/01 16:19:12;;;;;;;4.57;2.17;;;20.90;97.60;;;;;;10318213;28;20918;-69
2023/08/01 16:24:12;;;;;;;4.68;1.70;;;20.90;97.60;;;;;;10319399;28;20406;-67
2023/08/01 16:29:13;;;;;;;4.40;1.90;;;20.90;97.70;;;;;;10316640;28;20779;-67
2023/08/01 16:34:14;;;;;;;5.50;2.00;;;20.90;97.90;;;;;;10317765;28;20503;-68
2023/08/01 16:39:19;;;;;;;5.30;1.90;;;20.90;97.90;;;;;;10316299;28;20521;-68
2023/08/01 16:44:19;;;;;;;4.60;2.10;;;20.90;98.00;;;;;;10318428;28;20406;-69
2023/08/01 16:49:20;;;;;;;4.13;1.77;;;21.00;97.80;;;;;;10314768;28;20771;-69
2023/08/01 16:54:21;;;;;;;6.10;2.10;;;21.00;97.90;;;;;;10318040;28;20402;-67
2023/08/01 16:59:21;;;;;;;4.40;2.50;;;21.00;97.70;;;;;;10314789;28;20399;-68
2023/08/01 17:04:22;;;;;;;4.37;1.90;;;21.00;97.60;;;;;;10315470;28;20409;-67
2023/08/01 17:09:23;;;;;;;6.20;2.07;;;21.00;97.40;;;;;;10318793;28;20409;-67
2023/08/01 17:14:24;;;;;;;3.57;2.00;;;21.00;97.50;;;;;;10249956;28;1639721;-67
2023/08/01 17:19:24;;;;;;;3.35;2.20;;;21.00;97.20;;;;;;10313407;28;20410;-67
2023/08/01 17:24:25;;;;;;;3.35;2.20;;;21.00;97.20;;;;;;10315480;28;20878;-66
2023/08/01 17:29:26;;;;;;;5.30;2.13;;;21.00;97.20;;;;;;10311814;28;20406;-65
2023/08/01 17:34:26;;;;;;;2.50;1.83;;;21.00;97.20;;;;;;10310303;28;20414;-67
2023/08/01 17:39:27;;;;;;;5.40;2.70;;;21.00;97.00;;;;;;10311283;28;20406;-65
2023/08/01 17:44:28;;;;;;;4.00;2.00;;;21.00;97.00;;;;;;10301885;28;20418;-65
2023/08/01 17:49:29;;;;;;;4.47;2.38;;;21.00;97.10;;;;;;10306186;28;20421;-68
2023/08/01 17:54:29;;;;;;;3.47;2.13;;;21.00;97.00;;;;;;10311309;28;20421;-67
2023/08/01 17:59:30;;;;;;;4.83;2.23;;;21.00;97.00;;;;;;10311931;28;20453;-67
2023/08/01 18:04:34;;;;;;;4.07;2.33;;;21.00;97.00;;;;;;10309533;28;20429;-67
2023/08/01 18:09:35;;;;;;;5.00;2.20;;;21.00;97.00;;;;;;10314971;28;20445;-67
2023/08/01 18:14:35;;;;;;;4.70;2.33;;;21.00;97.00;;;;;;10311875;28;20850;-67
2023/08/01 18:19:36;;;;;;;4.13;2.67;;;20.90;96.90;;;;;;10313245;28;20487;-67
2023/08/01 18:24:36;;;;;;;5.00;2.50;;;21.10;97.00;;;;;;10322938;28;20761;-67
2023/08/01 18:29:37;;;;;;;4.13;2.20;;;20.90;96.90;;;;;;10304650;28;20425;-67
2023/08/01 18:34:38;;;;;;;2.70;2.30;;;20.90;96.90;;;;;;10318546;28;20418;-67
2023/08/01 18:39:38;;;;;;;4.80;2.67;;;20.90;96.90;;;;;;10317891;28;20411;-67
2023/08/01 18:44:39;;;;;;;5.20;3.30;;;20.90;96.90;;;;;;10320609;28;20492;-67
2023/08/01 18:49:39;;;;;;;4.33;2.67;;;20.90;96.90;;;;;;10319560;28;20414;-67
2023/08/01 18:54:40;;;;;;;4.60;3.03;;;20.90;96.90;;;;;;10325410;28;20557;-67
2023/08/01 18:59:41;;;;;;;3.58;2.22;;;20.90;96.90;;;;;;10318324;28;20923;-67
2023/08/01 19:04:41;;;;;;;4.28;2.58;;;20.90;96.90;;;;;;10317264;28;20400;-67
2023/08/01 19:09:42;;;;;;;5.55;3.00;;;20.90;96.90;;;;;;10317064;28;20931;-67
2023/08/01 19:14:42;;;;;;;4.70;2.72;;;20.80;96.90;;;;;;10315984;28;20425;-67
2023/08/01 19:19:44;;;;;;;4.17;2.70;;;20.80;96.90;;;;;;10317327;28;20409;-67
2023/08/01 19:24:45;;;;;;;3.90;2.70;;;20.80;96.90;;;;;;10314883;28;20487;-67
2023/08/01 19:29:52;;;;;;;3.20;2.63;;;20.70;96.90;;;;;;10306864;28;20894;-67
2023/08/01 19:34:53;;;;;;;4.03;2.40;;;20.70;96.90;;;;;;10310476;28;20460;-68
2023/08/01 19:39:54;;;;;;;4.07;2.50;;;20.70;96.90;;;;;;10311749;28;20398;-67
2023/08/01 19:44:54;;;;;;;4.97;2.77;;;20.70;96.90;;;;;;10316093;28;20424;-67
2023/08/01 19:49:55;;;;;;;4.17;3.20;;;20.70;96.90;;;;;;10303540;28;20432;-67
2023/08/01 19:54:56;;;;;;;5.00;2.80;;;20.70;96.90;;;;;;10304555;28;20412;-67
2023/08/01 19:59:56;;;;;;;4.83;2.90;;;20.70;96.90;;;;;;10313528;28;20397;-67
2023/08/01 20:04:57;;;;;;;3.90;2.50;;;20.60;96.90;;;;;;10310549;28;20426;-67
2023/08/01 20:09:58;;;;;;;4.23;2.70;;;20.60;96.90;;;;;;10308937;28;20402;-68
2023/08/01 20:15:00;;;;;;;4.63;2.90;;;20.60;96.90;;;;;;10310716;28;20795;-68
2023/08/01 20:20:01;;;;;;;4.53;3.20;;;20.60;96.90;;;;;;10313265;28;20395;-68
2023/08/01 20:25:02;;;;;;;5.70;3.50;;;20.60;97.00;;;;;;10319364;28;20427;-68
2023/08/01 20:30:03;;;;;;;6.23;4.13;;;20.60;97.00;;;;;;10311651;28;20415;-67
2023/08/01 20:35:04;;;;;;;7.00;4.40;;;20.60;97.00;;;;;;10311397;28;20419;-67
2023/08/01 20:40:05;;;;;;;5.75;3.65;;;20.50;97.00;;;;;;10308315;28;20410;-67
2023/08/01 20:45:08;;;;;;;7.30;4.72;;;20.50;97.00;;;;;;10311515;28;20878;-67
2023/08/01 20:50:08;;;;;;;6.90;4.77;;;20.50;97.10;;;;;;10313789;28;20404;-67
2023/08/01 20:55:09;;;;;;;5.80;3.73;;;20.50;97.20;;;;;;10310112;28;20426;-67
2023/08/01 21:00:10;;;;;;;7.70;4.97;;;20.40;97.10;;;;;;10312954;28;20782;-67
2023/08/01 21:05:14;;;;;;;7.30;4.68;;;20.50;97.20;;;;;;10308657;28;20426;-68
2023/08/01 21:10:14;;;;;;;6.18;3.95;;;20.50;97.20;;;;;;10301562;28;20849;-68
2023/08/01 21:15:16;;;;;;;5.13;3.88;;;20.40;97.20;;;;;;10310638;28;20932;-68
2023/08/01 21:20:17;;;;;;;5.45;3.50;;;20.40;97.20;;;;;;10308744;28;20504;-68
2023/08/01 21:25:17;;;;;;;5.73;3.60;;;20.40;97.20;;;;;;10309626;28;20580;-68
2023/08/01 21:30:18;;;;;;;5.50;3.63;;;20.40;97.20;;;;;;10309709;28;20402;-68
2023/08/01 21:35:19;;;;;;;5.57;3.90;;;20.40;97.20;;;;;;10312698;28;20752;-68
2023/08/01 21:40:19;;;;;;;4.67;3.67;;;20.40;97.30;;;;;;10314994;28;20419;-68
2023/08/01 21:45:20;;;;;;;6.13;3.40;;;20.40;97.20;;;;;;10317011;28;20433;-68
2023/08/01 21:50:21;;;;;;;5.93;4.40;;;20.40;97.20;;;;;;10326589;28;20410;-68
2023/08/01 21:55:22;;;;;;;6.00;3.73;;;20.30;97.20;;;;;;10323497;28;20966;-68
2023/08/01 22:00:22;;;;;;;4.43;3.43;;;20.30;97.20;;;;;;10326974;28;20401;-68
2023/08/01 22:05:23;;;;;;;6.03;3.70;;;20.30;97.20;;;;;;10325798;28;20410;-68
2023/08/01 22:10:26;;;;;;;3.97;3.20;;;20.30;97.20;;;;;;10331578;28;20746;-68
2023/08/01 22:15:28;;;;;;;5.13;3.50;;;20.30;97.10;;;;;;10325208;28;20425;-68
2023/08/01 22:20:29;;;;;;;4.45;3.20;;;20.30;97.10;;;;;;10326448;28;20406;-68
2023/08/01 22:25:30;;;;;;;5.32;3.50;;;20.30;97.10;;;;;;10326329;28;20403;-68
2023/08/01 22:30:30;;;;;;;5.03;3.60;;;20.20;97.10;;;;;;10328010;28;20902;-68
2023/08/01 22:35:31;;;;;;;5.60;3.47;;;20.30;97.10;;;;;;10326482;28;20883;-68
2023/08/01 22:40:32;;;;;;;4.27;3.57;;;20.20;97.10;;;;;;10313029;28;20427;-68
2023/08/01 22:45:32;;;;;;;4.23;3.20;;;20.20;97.10;;;;;;10324912;28;20889;-68
2023/08/01 22:50:33;;;;;;;4.38;3.40;;;20.20;97.10;;;;;;10317820;28;20418;-67
2023/08/01 22:55:35;;;;;;;5.10;3.50;;;20.20;97.10;;;;;;10329607;28;20435;-67
2023/08/01 23:00:36;;;;;;;4.28;3.25;;;20.20;97.00;;;;;;10325479;28;20413;-68
2023/08/01 23:05:36;;;;;;;5.73;3.10;;;20.30;97.10;;;;;;10324370;28;20408;-67
2023/08/01 23:10:37;;;;;;;4.17;3.27;;;20.20;97.00;;;;;;10321786;28;20778;-67
2023/08/01 23:15:37;;;;;;;5.07;3.40;;;20.20;97.00;;;;;;10319241;28;20422;-67
2023/08/01 23:20:38;;;;;;;3.65;2.92;;;20.20;96.90;;;;;;10323687;28;20399;-68
2023/08/01 23:25:39;;;;;;;4.47;3.28;;;20.20;96.90;;;;;;10323392;28;20786;-68
2023/08/01 23:30:39;;;;;;;5.70;3.45;;;20.10;96.90;;;;;;10316999;28;20415;-67
2023/08/01 23:35:42;;;;;;;4.35;3.22;;;20.10;96.90;;;;;;10329276;28;20418;-67
2023/08/01 23:40:43;;;;;;;4.22;3.15;;;20.10;96.90;;;;;;10320545;28;20491;-68
2023/08/01 23:45:53;;;;;;;4.97;3.33;;;20.10;96.90;;;;;;10325971;28;20903;-67
2023/08/01 23:50:54;;;;;;;5.20;3.25;;;20.10;96.90;;;;;;10321686;28;21027;-68
2023/08/01 23:55:59;;;;;;;4.32;3.20;;;20.10;97.00;;;;;;10320448;28;20415;-67
